createdAt,value
2018-11-25T00:02:19.218Z,98280.98
2018-11-25T00:04:47.572Z,98288.45
2018-11-25T00:07:15.976Z,98283.14
2018-11-25T00:09:44.371Z,98285.44
2018-11-25T00:12:12.806Z,98288.47
2018-11-25T00:14:41.163Z,98284.90
2018-11-25T00:17:09.592Z,98286.78
2018-11-25T00:19:38.125Z,98285.28
2018-11-25T00:22:06.521Z,98282.75
2018-11-25T00:24:34.900Z,98283.19
2018-11-25T00:27:03.222Z,98278.18
2018-11-25T00:29:31.617Z,98278.66
2018-11-25T00:32:00.024Z,98273.09
2018-11-25T00:34:28.437Z,98278.43
2018-11-25T00:36:56.871Z,98272.19
2018-11-25T00:39:25.303Z,98272.25
2018-11-25T00:41:53.645Z,98271.58
2018-11-25T00:44:22.016Z,98271.30
2018-11-25T00:46:50.379Z,98262.02
2018-11-25T00:49:18.710Z,98265.25
2018-11-25T00:51:47.237Z,98267.72
2018-11-25T00:54:15.566Z,98267.24
2018-11-25T00:56:43.915Z,98273.28
2018-11-25T00:59:12.303Z,98277.55
2018-11-25T01:01:40.608Z,98269.63
2018-11-25T01:04:09.045Z,98261.69
2018-11-25T01:06:38.256Z,98265.39
2018-11-25T01:09:09.006Z,98266.10
2018-11-25T01:11:37.464Z,98261.23
2018-11-25T01:14:06.028Z,98265.53
2018-11-25T01:16:34.422Z,98269.66
2018-11-25T01:19:02.802Z,98271.52
2018-11-25T01:21:31.162Z,98270.20
2018-11-25T01:23:59.500Z,98271.32
2018-11-25T01:26:27.837Z,98277.61
2018-11-25T01:28:56.174Z,98273.96
2018-11-25T01:31:24.601Z,98275.51
2018-11-25T01:33:52.916Z,98275.73
2018-11-25T01:36:21.346Z,98274.05
2018-11-25T01:38:49.802Z,98272.87
2018-11-25T01:41:18.136Z,98275.64
2018-11-25T01:43:46.567Z,98281.14
2018-11-25T01:46:14.995Z,98274.17
2018-11-25T01:48:43.415Z,98269.27
2018-11-25T01:51:11.775Z,98269.63
2018-11-25T01:53:40.182Z,98270.20
2018-11-25T01:56:08.533Z,98264.66
2018-11-25T01:58:36.938Z,98262.03
2018-11-25T02:01:05.799Z,98264.81
2018-11-25T02:03:34.115Z,98257.84
2018-11-25T02:06:02.427Z,98256.89
2018-11-25T02:08:30.857Z,98251.13
2018-11-25T02:10:59.163Z,98256.30
2018-11-25T02:13:27.581Z,98247.56
2018-11-25T02:15:55.960Z,98248.02
2018-11-25T02:18:24.356Z,98239.05
2018-11-25T02:20:52.694Z,98242.82
2018-11-25T02:23:21.083Z,98241.14
2018-11-25T02:25:49.453Z,98241.70
2018-11-25T02:28:17.847Z,98240.66
2018-11-25T02:30:46.447Z,98233.48
2018-11-25T02:33:14.843Z,98227.98
2018-11-25T02:35:43.185Z,98220.05
2018-11-25T02:38:11.584Z,98218.02
2018-11-25T02:40:40.038Z,98218.78
2018-11-25T02:43:08.438Z,98220.09
2018-11-25T02:45:36.775Z,98215.10
2018-11-25T02:48:05.149Z,98224.47
2018-11-25T02:50:34.124Z,98219.20
2018-11-25T02:53:06.872Z,98221.00
2018-11-25T02:55:35.264Z,98215.23
2018-11-25T02:58:03.607Z,98211.55
2018-11-25T03:00:31.960Z,98212.73
2018-11-25T03:03:00.276Z,98208.30
2018-11-25T03:05:28.659Z,98210.09
2018-11-25T03:07:56.979Z,98213.75
2018-11-25T03:10:25.439Z,98212.44
2018-11-25T03:12:54.184Z,98215.44
2018-11-25T03:15:22.564Z,98215.44
2018-11-25T03:17:50.907Z,98213.39
2018-11-25T03:20:19.323Z,98206.42
2018-11-25T03:22:47.698Z,98209.63
2018-11-25T03:25:19.948Z,98211.80
2018-11-25T03:27:48.342Z,98211.43
2018-11-25T03:30:17.989Z,98215.38
2018-11-25T03:32:47.327Z,98212.86
2018-11-25T03:35:15.741Z,98213.03
2018-11-25T03:37:44.190Z,98209.50
2018-11-25T03:40:13.715Z,98218.85
2018-11-25T03:42:42.073Z,98213.69
2018-11-25T03:45:20.157Z,98215.80
2018-11-25T03:47:48.522Z,98219.99
2018-11-25T03:50:17.176Z,98217.13
2018-11-25T03:52:45.594Z,98221.94
2018-11-25T03:55:15.823Z,98223.00
2018-11-25T03:57:44.116Z,98225.64
2018-11-25T04:00:18.559Z,98225.47
2018-11-25T04:02:47.068Z,98218.67
2018-11-25T04:05:16.424Z,98216.39
2018-11-25T04:07:44.808Z,98210.41
2018-11-25T04:10:15.031Z,98213.95
2018-11-25T04:12:43.314Z,98213.88
2018-11-25T04:15:12.594Z,98204.34
2018-11-25T04:17:40.893Z,98203.03
2018-11-25T04:20:24.736Z,98209.80
2018-11-25T04:22:53.043Z,98208.67
2018-11-25T04:25:21.462Z,98212.14
2018-11-25T04:27:49.800Z,98210.95
2018-11-25T04:30:18.983Z,98215.50
2018-11-25T04:32:49.424Z,98210.47
2018-11-25T04:35:17.886Z,98214.07
2018-11-25T04:37:46.200Z,98210.75
2018-11-25T04:40:15.401Z,98210.16
2018-11-25T04:42:43.691Z,98203.92
2018-11-25T04:45:14.779Z,98208.14
2018-11-25T04:47:43.502Z,98202.59
2018-11-25T04:50:15.047Z,98201.33
2018-11-25T04:52:43.405Z,98205.97
2018-11-25T04:55:11.812Z,98203.74
2018-11-25T04:57:40.183Z,98209.94
2018-11-25T05:00:10.982Z,98204.41
2018-11-25T05:02:39.799Z,98203.92
2018-11-25T05:05:11.767Z,98205.11
2018-11-25T05:07:40.281Z,98206.27
2018-11-25T05:10:12.693Z,98206.27
2018-11-25T05:12:41.130Z,98205.19
2018-11-25T05:15:11.219Z,98207.58
2018-11-25T05:17:39.579Z,98206.02
2018-11-25T05:20:09.679Z,98208.47
2018-11-25T05:22:38.104Z,98209.27
2018-11-25T05:25:08.880Z,98214.41
2018-11-25T05:27:37.284Z,98211.31
2018-11-25T05:30:07.792Z,98211.11
2018-11-25T05:32:36.187Z,98215.69
2018-11-25T05:35:05.730Z,98207.27
2018-11-25T05:37:34.149Z,98206.91
2018-11-25T05:40:02.486Z,98206.98
2018-11-25T05:42:30.835Z,98207.81
2018-11-25T05:44:59.153Z,98206.51
2018-11-25T05:47:27.503Z,98209.99
2018-11-25T05:49:55.800Z,98204.64
2018-11-25T05:52:24.225Z,98206.67
2018-11-25T05:54:52.627Z,98202.07
2018-11-25T05:57:21.001Z,98201.87
2018-11-25T05:59:49.369Z,98208.31
2018-11-25T06:02:17.954Z,98214.91
2018-11-25T06:04:46.320Z,98216.87
2018-11-25T06:07:14.672Z,98206.92
2018-11-25T06:09:43.089Z,98206.21
2018-11-25T06:12:11.476Z,98212.70
2018-11-25T06:14:39.931Z,98219.03
2018-11-25T06:17:08.320Z,98217.97
2018-11-25T06:19:36.685Z,98226.91
2018-11-25T06:22:05.380Z,98219.78
2018-11-25T06:24:33.736Z,98221.58
2018-11-25T06:27:02.065Z,98228.06
2018-11-25T06:29:30.373Z,98226.99
2018-11-25T06:31:58.808Z,98223.19
2018-11-25T06:34:27.095Z,98226.86
2018-11-25T06:36:55.688Z,98224.22
2018-11-25T06:39:24.147Z,98231.41
2018-11-25T06:41:53.373Z,98230.33
2018-11-25T06:44:21.810Z,98242.91
2018-11-25T06:46:50.284Z,98236.80
2018-11-25T06:49:18.618Z,98237.36
2018-11-25T06:51:47.034Z,98234.81
2018-11-25T06:54:15.341Z,98233.48
2018-11-25T06:56:43.660Z,98236.36
2018-11-25T06:59:12.059Z,98234.81
2018-11-25T07:01:40.459Z,98241.52
2018-11-25T07:04:08.792Z,98242.00
2018-11-25T07:06:37.188Z,98241.42
2018-11-25T07:09:09.902Z,98239.28
2018-11-25T07:11:37.314Z,98235.05
2018-11-25T07:14:06.134Z,98236.50
2018-11-25T07:16:34.568Z,98239.39
2018-11-25T07:19:02.895Z,98231.20
2018-11-25T07:21:31.392Z,98238.20
2018-11-25T07:23:59.736Z,98232.04
2018-11-25T07:26:28.091Z,98234.56
2018-11-25T07:28:56.509Z,98236.55
2018-11-25T07:31:24.908Z,98241.22
2018-11-25T07:33:53.403Z,98244.67
2018-11-25T07:36:21.689Z,98239.21
2018-11-25T07:38:50.115Z,98241.08
2018-11-25T07:41:18.550Z,98237.67
2018-11-25T07:43:46.883Z,98239.32
2018-11-25T07:46:15.321Z,98237.82
2018-11-25T07:48:43.696Z,98238.19
2018-11-25T07:51:12.037Z,98240.45
2018-11-25T07:53:40.355Z,98237.85
2018-11-25T07:56:08.695Z,98240.45
2018-11-25T07:58:37.141Z,98240.45
2018-11-25T08:01:05.605Z,98236.86
2018-11-25T08:03:34.199Z,98238.22
2018-11-25T08:06:02.998Z,98245.14
2018-11-25T08:08:31.429Z,98242.64
2018-11-25T08:11:00.188Z,98248.37
2018-11-25T08:13:28.608Z,98248.34
2018-11-25T08:15:57.583Z,98247.41
2018-11-25T08:18:26.041Z,98242.50
2018-11-25T08:20:54.403Z,98246.55
2018-11-25T08:23:22.858Z,98250.17
2018-11-25T08:25:51.153Z,98252.62
2018-11-25T08:28:19.821Z,98256.86
2018-11-25T08:30:48.294Z,98258.34
2018-11-25T08:33:16.632Z,98254.24
2018-11-25T08:35:45.080Z,98259.32
2018-11-25T08:38:13.519Z,98255.19
2018-11-25T08:40:41.976Z,98251.42
2018-11-25T08:43:10.394Z,98251.67
2018-11-25T08:45:38.860Z,98250.95
2018-11-25T08:48:07.294Z,98246.52
2018-11-25T08:50:35.673Z,98253.89
2018-11-25T08:53:04.112Z,98254.02
2018-11-25T08:55:32.569Z,98251.16
2018-11-25T08:58:01.081Z,98246.39
2018-11-25T09:00:29.485Z,98254.80
2018-11-25T09:03:05.592Z,98248.48
2018-11-25T09:05:34.901Z,98246.44
2018-11-25T09:08:02.909Z,98247.05
2018-11-25T09:10:32.776Z,98245.31
2018-11-25T09:13:01.231Z,98249.98
2018-11-25T09:15:30.633Z,98247.60
2018-11-25T09:17:59.365Z,98254.94
2018-11-25T09:20:27.677Z,98251.09
2018-11-25T09:22:56.054Z,98244.25
2018-11-25T09:25:26.656Z,98247.01
2018-11-25T09:27:55.769Z,98252.55
2018-11-25T09:30:25.186Z,98252.77
2018-11-25T09:32:53.523Z,98246.28
2018-11-25T09:35:22.073Z,98253.74
2018-11-25T09:37:50.476Z,98245.30
2018-11-25T09:40:21.837Z,98243.76
2018-11-25T09:42:50.212Z,98249.77
2018-11-25T09:45:19.472Z,98247.34
2018-11-25T09:47:48.203Z,98239.53
2018-11-25T09:50:18.767Z,98250.70
2018-11-25T09:52:47.115Z,98254.67
2018-11-25T09:55:20.179Z,98252.13
2018-11-25T09:57:50.871Z,98250.47
2018-11-25T10:00:23.208Z,98254.56
2018-11-25T10:02:51.517Z,98259.62
2018-11-25T10:05:19.855Z,98254.92
2018-11-25T10:07:48.181Z,98248.91
2018-11-25T10:10:19.703Z,98246.02
2018-11-25T10:12:48.143Z,98247.11
2018-11-25T10:15:19.557Z,98248.41
2018-11-25T10:17:47.972Z,98251.19
2018-11-25T10:20:22.521Z,98243.95
2018-11-25T10:22:50.892Z,98244.55
2018-11-25T10:25:20.430Z,98239.84
2018-11-25T10:27:49.017Z,98235.98
2018-11-25T10:30:21.623Z,98237.28
2018-11-25T10:32:52.476Z,98233.77
2018-11-25T10:35:21.043Z,98241.10
2018-11-25T10:37:49.357Z,98234.73
2018-11-25T10:40:19.676Z,98232.11
2018-11-25T10:42:48.086Z,98233.50
2018-11-25T10:45:17.655Z,98230.50
2018-11-25T10:47:46.023Z,98227.63
2018-11-25T10:50:16.170Z,98226.40
2018-11-25T10:52:44.588Z,98228.20
2018-11-25T10:55:13.876Z,98233.51
2018-11-25T10:57:42.912Z,98227.20
2018-11-25T11:00:19.133Z,98226.53
2018-11-25T11:02:47.620Z,98225.39
2018-11-25T11:05:21.264Z,98226.85
2018-11-25T11:07:49.627Z,98222.66
2018-11-25T11:10:18.028Z,98224.81
2018-11-25T11:12:46.348Z,98220.80
2018-11-25T11:15:14.878Z,98216.35
2018-11-25T11:17:43.339Z,98212.77
2018-11-25T11:20:11.756Z,98211.75
2018-11-25T11:22:40.061Z,98206.56
2018-11-25T11:25:09.424Z,98210.75
2018-11-25T11:27:37.799Z,98200.56
2018-11-25T11:30:10.982Z,98195.74
2018-11-25T11:32:43.807Z,98199.10
2018-11-25T11:35:12.224Z,98203.98
2018-11-25T11:37:40.613Z,98205.28
2018-11-25T11:40:12.352Z,98209.89
2018-11-25T11:42:40.752Z,98209.23
2018-11-25T11:45:10.795Z,98207.55
2018-11-25T11:47:39.228Z,98202.78
2018-11-25T11:50:16.083Z,98202.24
2018-11-25T11:52:44.600Z,98198.85
2018-11-25T11:55:14.121Z,98200.00
2018-11-25T11:57:43.304Z,98205.20
2018-11-25T12:00:15.528Z,98201.98
2018-11-25T12:02:43.936Z,98195.23
2018-11-25T12:05:12.449Z,98198.27
2018-11-25T12:07:40.838Z,98193.77
2018-11-25T12:10:12.391Z,98191.91
2018-11-25T12:12:40.817Z,98193.41
2018-11-25T12:15:12.301Z,98201.09
2018-11-25T12:17:40.647Z,98197.83
2018-11-25T12:20:09.882Z,98203.53
2018-11-25T12:22:38.700Z,98196.06
2018-11-25T12:25:10.103Z,98187.80
2018-11-25T12:27:38.697Z,98184.97
2018-11-25T12:30:09.644Z,98192.52
2018-11-25T12:32:38.249Z,98189.64
2018-11-25T12:35:07.261Z,98185.36
2018-11-25T12:37:36.168Z,98180.23
2018-11-25T12:40:04.346Z,98180.37
2018-11-25T12:42:32.754Z,98180.20
2018-11-25T12:45:01.151Z,98181.39
2018-11-25T12:47:29.596Z,98179.93
2018-11-25T12:49:57.972Z,98174.44
2018-11-25T12:52:26.324Z,98179.92
2018-11-25T12:54:54.636Z,98174.53
2018-11-25T12:57:23.009Z,98174.58
2018-11-25T12:59:51.378Z,98172.91
2018-11-25T13:02:19.739Z,98167.52
2018-11-25T13:04:48.074Z,98168.09
2018-11-25T13:07:16.507Z,98167.13
2018-11-25T13:09:44.788Z,98173.40
2018-11-25T13:12:13.288Z,98174.23
2018-11-25T13:14:41.666Z,98169.55
2018-11-25T13:17:10.020Z,98164.96
2018-11-25T13:19:38.417Z,98164.47
2018-11-25T13:22:07.831Z,98159.56
2018-11-25T13:24:36.265Z,98158.72
2018-11-25T13:27:05.227Z,98155.19
2018-11-25T13:29:33.624Z,98160.50
2018-11-25T13:32:02.031Z,98159.17
2018-11-25T13:34:30.394Z,98162.88
2018-11-25T13:36:58.797Z,98167.11
2018-11-25T13:39:27.089Z,98168.00
2018-11-25T13:41:55.535Z,98164.73
2018-11-25T13:44:23.906Z,98162.56
2018-11-25T13:46:52.271Z,98169.32
2018-11-25T13:49:20.639Z,98164.86
2018-11-25T13:51:49.173Z,98160.88
2018-11-25T13:54:17.499Z,98160.14
2018-11-25T13:56:45.908Z,98164.87
2018-11-25T13:59:14.241Z,98160.67
2018-11-25T14:01:42.563Z,98164.29
2018-11-25T14:04:10.892Z,98169.73
2018-11-25T14:06:39.365Z,98161.55
2018-11-25T14:09:12.083Z,98158.06
2018-11-25T14:11:40.433Z,98162.85
2018-11-25T14:14:08.742Z,98159.84
2018-11-25T14:16:37.107Z,98167.66
2018-11-25T14:19:05.787Z,98172.88
2018-11-25T14:21:34.196Z,98172.26
2018-11-25T14:24:02.536Z,98165.63
2018-11-25T14:26:39.221Z,98164.31
2018-11-25T14:29:07.591Z,98171.19
2018-11-25T14:31:35.987Z,98173.49
2018-11-25T14:34:04.321Z,98166.47
2018-11-25T14:36:33.017Z,98164.61
2018-11-25T14:39:01.485Z,98170.09
2018-11-25T14:41:29.855Z,98173.36
2018-11-25T14:43:58.156Z,98171.45
2018-11-25T14:46:26.633Z,98177.02
2018-11-25T14:48:54.943Z,98170.04
2018-11-25T14:51:23.358Z,98165.74
2018-11-25T14:53:52.646Z,98171.43
2018-11-25T14:56:20.903Z,98167.26
2018-11-25T14:58:49.472Z,98166.26
2018-11-25T15:01:17.939Z,98163.84
2018-11-25T15:03:46.430Z,98167.23
2018-11-25T15:06:14.877Z,98163.87
2018-11-25T15:08:43.394Z,98165.77
2018-11-25T15:11:11.785Z,98159.89
2018-11-25T15:13:40.195Z,98155.70
2018-11-25T15:16:10.795Z,98154.95
2018-11-25T15:18:39.102Z,98155.53
2018-11-25T15:21:08.641Z,98150.50
2018-11-25T15:23:37.132Z,98150.40
2018-11-25T15:26:06.339Z,98150.30
2018-11-25T15:28:34.916Z,98155.37
2018-11-25T15:31:03.227Z,98159.92
2018-11-25T15:33:31.587Z,98156.56
2018-11-25T15:35:59.910Z,98159.20
2018-11-25T15:38:28.232Z,98161.15
2018-11-25T15:40:57.322Z,98160.41
2018-11-25T15:43:25.091Z,98156.79
2018-11-25T15:45:53.468Z,98159.83
2018-11-25T15:48:27.585Z,98160.89
2018-11-25T15:50:55.917Z,98151.49
2018-11-25T15:53:24.296Z,98152.45
2018-11-25T15:55:54.182Z,98153.55
2018-11-25T15:58:22.537Z,98158.98
2018-11-25T16:00:52.193Z,98155.72
2018-11-25T16:03:20.672Z,98159.47
2018-11-25T16:05:55.365Z,98150.34
2018-11-25T16:08:23.918Z,98159.13
2018-11-25T16:10:52.393Z,98158.14
2018-11-25T16:13:20.789Z,98153.94
2018-11-25T16:15:49.705Z,98151.30
2018-11-25T16:18:18.701Z,98157.09
2018-11-25T16:20:48.492Z,98158.98
2018-11-25T16:23:16.923Z,98153.30
2018-11-25T16:25:48.952Z,98145.61
2018-11-25T16:28:19.001Z,98153.47
2018-11-25T16:30:47.531Z,98154.45
2018-11-25T16:33:15.903Z,98154.09
2018-11-25T16:35:44.331Z,98151.69
2018-11-25T16:38:12.681Z,98149.86
2018-11-25T16:40:40.977Z,98149.15
2018-11-25T16:43:09.684Z,98154.44
2018-11-25T16:45:38.051Z,98157.11
2018-11-25T16:48:07.442Z,98156.61
2018-11-25T16:50:35.748Z,98160.34
2018-11-25T16:53:04.107Z,98158.06
2018-11-25T16:55:32.617Z,98162.03
2018-11-25T16:58:00.952Z,98166.67
2018-11-25T17:00:29.400Z,98164.17
2018-11-25T17:02:57.719Z,98164.55
2018-11-25T17:05:31.672Z,98168.77
2018-11-25T17:09:06.435Z,98163.25
2018-11-25T17:11:34.735Z,98166.84
2018-11-25T17:14:03.095Z,98171.55
2018-11-25T17:16:31.492Z,98166.23
2018-11-25T17:18:59.858Z,98168.77
2018-11-25T17:21:28.228Z,98173.25
2018-11-25T17:23:56.695Z,98168.06
2018-11-25T17:26:25.088Z,98171.17
2018-11-25T17:28:53.407Z,98170.20
2018-11-25T17:31:21.847Z,98170.33
2018-11-25T17:33:50.211Z,98166.72
2018-11-25T17:36:18.821Z,98168.30
2018-11-25T17:38:47.350Z,98170.20
2018-11-25T17:41:15.780Z,98172.75
2018-11-25T17:43:44.148Z,98176.34
2018-11-25T17:46:12.594Z,98185.50
2018-11-25T17:48:43.234Z,98188.25
2018-11-25T17:51:11.636Z,98193.33
2018-11-25T17:53:39.984Z,98197.42
2018-11-25T17:56:08.273Z,98189.58
2018-11-25T17:58:36.788Z,98195.00
2018-11-25T18:01:06.840Z,98195.27
2018-11-25T18:03:36.529Z,98184.19
2018-11-25T18:06:04.926Z,98181.54
2018-11-25T18:08:33.288Z,98180.56
2018-11-25T18:11:01.635Z,98177.69
2018-11-25T18:13:32.170Z,98185.38
2018-11-25T18:16:02.101Z,98190.55
2018-11-25T18:18:33.963Z,98187.67
2018-11-25T18:21:03.868Z,98189.11
2018-11-25T18:23:32.335Z,98188.98
2018-11-25T18:26:00.720Z,98188.88
2018-11-25T18:28:41.842Z,98186.84
2018-11-25T18:31:11.864Z,98183.25
2018-11-25T18:33:40.383Z,98175.05
2018-11-25T18:36:10.468Z,98180.73
2018-11-25T18:38:38.879Z,98186.37
2018-11-25T18:41:07.594Z,98187.92
2018-11-25T18:43:36.011Z,98185.88
2018-11-25T18:46:05.174Z,98189.60
2018-11-25T18:48:34.683Z,98193.22
2018-11-25T18:51:03.019Z,98191.31
2018-11-25T18:53:31.444Z,98191.91
2018-11-25T18:55:59.793Z,98196.23
2018-11-25T18:58:28.276Z,98193.72
2018-11-25T19:01:00.035Z,98195.03
2018-11-25T19:03:28.398Z,98186.97
2018-11-25T19:05:56.759Z,98185.19
2018-11-25T19:08:25.165Z,98179.66
2018-11-25T19:10:53.723Z,98174.48
2018-11-25T19:13:22.096Z,98173.52
2018-11-25T19:15:50.502Z,98182.30
2018-11-25T19:18:19.059Z,98179.52
2018-11-25T19:20:47.564Z,98191.55
2018-11-25T19:23:16.169Z,98191.31
2018-11-25T19:25:44.536Z,98196.96
2018-11-25T19:28:12.908Z,98194.92
2018-11-25T19:30:41.240Z,98191.33
2018-11-25T19:33:10.685Z,98199.63
2018-11-25T19:35:52.815Z,98205.28
2018-11-25T19:38:23.109Z,98199.99
2018-11-25T19:40:51.646Z,98202.16
2018-11-25T19:43:20.143Z,98199.84
2018-11-25T19:45:48.484Z,98199.12
2018-11-25T19:48:17.078Z,98206.58
2018-11-25T19:50:45.784Z,98200.45
2018-11-25T19:53:16.254Z,98204.20
2018-11-25T19:55:45.451Z,98203.45
2018-11-25T19:58:13.861Z,98203.23
2018-11-25T20:00:42.204Z,98204.91
2018-11-25T20:03:11.511Z,98200.47
2018-11-25T20:05:39.940Z,98206.20
2018-11-25T20:08:08.682Z,98208.73
2018-11-25T20:10:37.136Z,98204.17
2018-11-25T20:13:06.827Z,98206.81
2018-11-25T20:15:36.174Z,98204.91
2018-11-25T20:18:06.023Z,98204.66
2018-11-25T20:20:34.360Z,98208.63
2018-11-25T20:23:02.805Z,98201.17
2018-11-25T20:25:31.271Z,98208.53
2018-11-25T20:27:59.745Z,98200.95
2018-11-25T20:30:29.888Z,98204.92
2018-11-25T20:33:03.584Z,98204.54
2018-11-25T20:35:31.969Z,98206.34
2018-11-25T20:38:05.922Z,98214.52
2018-11-25T20:40:34.270Z,98214.88
2018-11-25T20:43:03.254Z,98221.64
2018-11-25T20:45:38.993Z,98224.87
2018-11-25T20:48:05.916Z,98225.97
2018-11-25T20:50:34.356Z,98222.84
2018-11-25T20:53:08.391Z,98219.09
2018-11-25T20:55:37.304Z,98226.33
2018-11-25T20:58:07.439Z,98223.80
2018-11-25T21:00:36.564Z,98220.89
2018-11-25T21:03:07.267Z,98222.20
2018-11-25T21:05:36.878Z,98214.28
2018-11-25T21:08:05.733Z,98209.47
2018-11-25T21:10:34.091Z,98207.56
2018-11-25T21:13:02.635Z,98219.45
2018-11-25T21:15:36.481Z,98213.33
2018-11-25T21:18:06.593Z,98209.12
2018-11-25T21:20:35.884Z,98214.66
2018-11-25T21:23:07.454Z,98213.94
2018-11-25T21:25:37.835Z,98218.63
2018-11-25T21:28:08.195Z,98208.05
2018-11-25T21:30:37.781Z,98209.61
2018-11-25T21:33:06.664Z,98211.54
2018-11-25T21:35:35.567Z,98215.62
2018-11-25T21:38:04.605Z,98213.22
2018-11-25T21:40:33.360Z,98209.73
2018-11-25T21:43:02.257Z,98217.19
2018-11-25T21:45:31.822Z,98208.05
2018-11-25T21:48:00.508Z,98217.88
2018-11-25T21:50:29.942Z,98209.13
2018-11-25T21:52:58.320Z,98211.54
2018-11-25T21:55:26.639Z,98214.78
2018-11-25T21:57:55.283Z,98216.22
2018-11-25T22:00:25.135Z,98213.94
2018-11-25T22:02:53.420Z,98217.19
2018-11-25T22:05:24.911Z,98215.02
2018-11-25T22:07:51.968Z,98211.88
2018-11-25T22:10:21.225Z,98210.56
2018-11-25T22:12:50.557Z,98204.80
2018-11-25T22:15:21.115Z,98206.47
2018-11-25T22:17:50.152Z,98203.35
2018-11-25T22:20:19.201Z,98209.25
2018-11-25T22:22:48.407Z,98210.58
2018-11-25T22:25:19.546Z,98219.47
2018-11-25T22:27:48.340Z,98221.39
2018-11-25T22:30:21.678Z,98216.10
2018-11-25T22:32:50.976Z,98217.41
2018-11-25T22:35:21.209Z,98215.84
2018-11-25T22:37:49.571Z,98212.97
2018-11-25T22:40:18.850Z,98216.92
2018-11-25T22:42:48.046Z,98221.62
2018-11-25T22:45:18.326Z,98218.24
2018-11-25T22:47:46.821Z,98217.64
2018-11-25T22:50:16.329Z,98222.48
2018-11-25T22:52:44.877Z,98223.53
2018-11-25T22:55:22.553Z,98229.44
2018-11-25T22:57:50.924Z,98227.05
2018-11-25T23:00:23.327Z,98219.71
2018-11-25T23:02:51.708Z,98220.19
2018-11-25T23:05:31.885Z,98216.06
2018-11-25T23:08:00.223Z,98210.31
2018-11-25T23:10:28.559Z,98219.09
2018-11-25T23:12:56.852Z,98224.15
2018-11-25T23:15:25.228Z,98229.68
2018-11-25T23:17:53.618Z,98234.58
2018-11-25T23:20:22.004Z,98229.77
2018-11-25T23:22:50.381Z,98230.05
2018-11-25T23:25:18.772Z,98227.76
2018-11-25T23:27:47.120Z,98221.74
2018-11-25T23:30:15.524Z,98218.61
2018-11-25T23:32:44.108Z,98211.98
2018-11-25T23:35:16.280Z,98220.63
2018-11-25T23:37:44.670Z,98209.36
2018-11-25T23:40:13.117Z,98219.34
2018-11-25T23:42:41.460Z,98218.11
2018-11-25T23:45:14.722Z,98214.87
2018-11-25T23:47:43.165Z,98209.46
2018-11-25T23:50:12.397Z,98210.42
2018-11-25T23:52:41.064Z,98205.73
2018-11-25T23:55:10.874Z,98213.06
2018-11-25T23:57:39.518Z,98221.36
